メインページ
METAR-TAF:

METAR-TAF

空港 :

バマコ・セヌー国際空港

バマコ, マリ共和国

緯度: 12-32N, 経度: 007-57W, 海抜: 380m

現時点の気象観測

当レポートは58分前の02:30(UTC)に作成
変向風 1kt
気温 23°C
湿度 94%
気圧 1014 hPa
視程10km以上
高度2000ftの雲はほとんどない

METAR: GABS 250230Z VRB01KT 9999 FEW020 23/22 Q1014 NOSIG

時間: 03:28 (03:28 UTC)

予報

当レポートは4時間28分前の23:00(UTC)に作成
予報は25日の 00時(UTC)から 26日の 06時(UTC)まで有効
南西の風 6kt
視程10km以上
高度2600ftの雲はほとんどない
高度3000ftの雲はほとんどない, 積乱雲.
激しい雷雨
25日の 01時(UTC)から 25日の 02時(UTC)まで徐々に
確率 40% :
26日の 00時(UTC)から 26日の 06時(UTC)まで一時的に
の風 15kt、最大35ktの突風を伴う
視程: 3000m
高度2600ftの雲は散在している
高度3000ftの雲は散在している, 積乱雲.
激しい雷雨, 雨

TAF: GABS 242300Z 2500/2606 22006KT 9999 FEW026 TS FEW030CB BECMG 2501/2502 NSW PROB40 TEMPO 2600/2606 08015G35KT 3000 TSRA SCT026 SCT030CB

4,000以上の空港の気象観測と天気予報(METAR報とTAF報)

利用可能な観測所は地図上に黄色い丸と赤い丸で示す。

丸の上にカーソルを重ねると観測所名を参照できる。

次にクリックすると気象観測と天気予報を参照できる。

マップの切り替え:黒色「×」印の緑ボタンをクリックして拡大、「-」印の緑ボタンをクリックして縮小、緑色の三角印をクリックして隣りの地図に切り替え


METAR-TAF: